YHID

Details ICAO YHID (HID)
Name Horn Island
Region Australia
Timezone Australia/Brisbane (UTC+10.0)
Plans Departing 295
Arriving 305
Stats Elevation 41 ft / 12 m (AMSL)
Location -10.585700° 142.290000°
Runways 2
Magnetic Variation 4.748° E
Sunrise 2020-10-30 20:01:25 UTC / 2020-10-31 06:01:25 Local
Sunset 2020-10-31 08:29:57 UTC / 2020-10-31 18:29:57 Local
Advertisement - Login to hide

Runways

ID Width Length Bearing (true/mag) Surface Threshold Overrun Markings Lighting
08 98 ft / 30 m 4,562 ft / 1,390 m 84.71° / 79.96° ASPHALT 0 ft / 0 m 0 ft / 0 m APP CENTERLINE EDGE THRESHOLD
14 75 ft / 23 m 4,059 ft / 1,237 m 140.12° / 135.37° ASPHALT 167 ft / 51 m 184 ft / 56 m VISUAL CENTERLINE EDGE THRESHOLD
26 98 ft / 30 m 4,562 ft / 1,390 m 264.71° / 259.96° ASPHALT 456 ft / 139 m 144 ft / 44 m APP CENTERLINE EDGE THRESHOLD
32 75 ft / 23 m 4,059 ft / 1,237 m 320.12° / 315.37° ASPHALT 0 ft / 0 m 0 ft / 0 m VISUAL CENTERLINE EDGE THRESHOLD

Map

Weather


0- 5 10 15 20 25 30 35+ Temperature / °C

Clouds and Precipitation
Forecast for 2020-10-31 06:00 UTC. Updated 6 hours ago

Ground ~20,000 ft ~40,000 ft Winds

METAR

YHID 310900Z AUTO 10012KT 9999 // SCT020 28/22 Q1009

TAF

TAF YHID 302305Z 3100/0100 09014KT 9999 SCT025 FM310900 11012KT 9999 SCT015 FM312300 11016KT 9999 SCT025

Frequencies

Unicom 126.50 MHz Unicom
Warning: Do not use this data for real-world aviation or navigation. No guarantee of current accuracy is given.